Time;durP1;ratioP1;P1;durP2;ratioP2;P2;SDS_P1;SDS_P2;PMS_P1;PMS_P2;Temp;Humidity;BMP_temperature;BMP_pressure;BME280_temperature;BME280_humidity;BME280_pressure;Samples;Min_cycle;Max_cycle;Signal;HPM_P1;HPM_P2
2022/08/20 00:02:08;;;;;;;10.40;6.72;;;;;;;22.27;67.22;94647.41;5018301;28;20052;-69
2022/08/20 00:04:35;;;;;;;11.25;7.00;;;;;;;22.29;67.28;94650.53;5017612;28;20145;-70
2022/08/20 00:07:05;;;;;;;8.25;6.50;;;;;;;22.29;66.90;94655.03;5017362;28;20046;-70
2022/08/20 00:09:33;;;;;;;12.07;5.68;;;;;;;22.18;67.51;94638.59;5018972;28;20136;-70
2022/08/20 00:12:04;;;;;;;14.07;6.68;;;;;;;22.29;67.10;94649.75;5018417;28;20050;-70
2022/08/20 00:14:31;;;;;;;10.93;7.00;;;;;;;22.18;67.78;94628.00;5020362;28;20052;-70
2022/08/20 00:17:00;;;;;;;10.90;7.57;;;;;;;22.26;68.08;94645.84;5019705;28;20053;-69
2022/08/20 00:19:27;;;;;;;7.82;6.60;;;;;;;22.24;67.07;94648.00;5017740;28;20571;-69
2022/08/20 00:21:54;;;;;;;12.35;7.65;;;;;;;22.26;67.69;94648.50;5018618;28;20081;-69
2022/08/20 00:24:24;;;;;;;10.18;7.03;;;;;;;22.28;67.07;94648.97;5018080;28;20030;-69
2022/08/20 00:26:51;;;;;;;12.38;7.03;;;;;;;22.26;66.94;94653.81;5019466;28;20042;-69
2022/08/20 00:29:19;;;;;;;10.00;6.38;;;;;;;22.24;67.10;94648.00;5002128;28;20041;-70
2022/08/20 00:31:49;;;;;;;10.40;6.88;;;;;;;22.24;66.88;94648.00;5017383;28;20485;-70
2022/08/20 00:34:16;;;;;;;10.77;7.30;;;;;;;22.20;67.03;94641.75;5000342;28;20515;-70
2022/08/20 00:36:43;;;;;;;7.32;6.43;;;;;;;22.13;67.56;94626.28;5019138;28;20037;-69
2022/08/20 00:39:10;;;;;;;9.80;6.70;;;;;;;22.10;67.53;94626.13;5018870;28;20033;-70
2022/08/20 00:41:37;;;;;;;8.80;6.30;;;;;;;22.13;67.63;94638.78;5000947;28;20501;-70
2022/08/20 00:44:12;;;;;;;10.18;6.60;;;;;;;22.14;68.54;94637.66;5018191;28;20442;-68
2022/08/20 00:46:41;;;;;;;9.43;6.63;;;;;;;22.08;68.49;94638.91;5011102;28;20692;-68
2022/08/20 00:49:13;;;;;;;10.15;7.20;;;;;;;22.06;69.09;94635.78;5000295;28;20049;-68
2022/08/20 00:51:45;;;;;;;9.80;7.00;;;;;;;22.02;69.41;94637.47;5018637;28;20438;-68
2022/08/20 00:54:33;;;;;;;11.93;6.72;;;;;;;21.96;69.07;94637.63;5018568;28;20038;-68
2022/08/20 00:57:04;;;;;;;10.93;7.95;;;;;;;21.83;69.83;94638.50;5006512;28;20060;-68
2022/08/20 00:59:33;;;;;;;10.23;6.78;;;;;;;21.73;70.29;94622.88;5005113;28;20045;-69
2022/08/20 01:02:01;;;;;;;11.85;7.60;;;;;;;21.68;70.32;94636.25;5014982;28;20459;-69
2022/08/20 01:04:33;;;;;;;9.70;7.60;;;;;;;21.68;71.10;94638.91;5014937;28;20045;-69
2022/08/20 01:07:02;;;;;;;10.18;6.72;;;;;;;21.62;71.30;94632.19;5016255;28;20340;-69
2022/08/20 01:09:28;;;;;;;8.52;6.65;;;;;;;21.57;71.94;94631.25;5018974;28;20519;-68
2022/08/20 01:12:17;;;;;;;13.85;6.97;;;;;;;21.39;71.55;94608.34;5014696;28;20052;-68
2022/08/20 01:14:45;;;;;;;10.35;6.85;;;;;;;21.35;71.88;94607.41;5018227;28;20041;-68
2022/08/20 01:17:18;;;;;;;9.38;6.75;;;;;;;21.43;71.83;94625.22;5015187;28;20048;-68
2022/08/20 01:20:08;;;;;;;8.05;6.78;;;;;;;21.45;72.95;94632.88;5019708;28;20050;-68
2022/08/20 01:23:26;;;;;;;9.07;6.45;;;;;;;21.33;73.77;94622.84;5002342;28;20691;-69
2022/08/20 01:25:56;;;;;;;9.13;6.88;;;;;;;21.31;73.46;94617.84;4974412;28;20042;-69
2022/08/20 01:28:28;;;;;;;10.05;7.05;;;;;;;21.23;73.62;94609.84;5020050;28;20139;-69
2022/08/20 01:30:56;;;;;;;12.07;6.80;;;;;;;21.27;74.48;94626.72;5016271;28;20073;-69
2022/08/20 01:33:24;;;;;;;9.52;6.80;;;;;;;21.24;74.47;94624.66;5015537;28;20052;-69
2022/08/20 01:35:51;;;;;;;9.73;6.88;;;;;;;21.06;74.52;94594.66;5018039;28;20049;-69
2022/08/20 01:38:19;;;;;;;12.40;7.13;;;;;;;21.23;75.17;94620.44;5019878;28;20045;-69
2022/08/20 01:40:46;;;;;;;10.27;6.82;;;;;;;21.19;74.77;94620.25;5018995;28;20047;-69
2022/08/20 01:43:14;;;;;;;9.38;6.65;;;;;;;21.14;75.79;94607.94;5016449;28;20053;-68
2022/08/20 01:45:43;;;;;;;13.82;6.78;;;;;;;21.03;76.74;94606.63;5020519;28;20052;-69
2022/08/20 01:48:12;;;;;;;8.20;6.65;;;;;;;21.02;76.12;94602.41;5010484;28;20056;-69
2022/08/20 01:50:46;;;;;;;9.35;6.57;;;;;;;21.02;76.40;94594.47;5016611;28;20108;-69
2022/08/20 01:53:27;;;;;;;10.02;6.97;;;;;;;21.00;77.05;94602.72;5018440;28;20053;-69
2022/08/20 01:55:54;;;;;;;10.30;7.22;;;;;;;20.95;76.90;94599.41;5019602;28;20041;-69
2022/08/20 01:58:21;;;;;;;9.75;6.28;;;;;;;20.96;77.13;94598.34;5021972;28;20041;-69
2022/08/20 02:00:48;;;;;;;9.43;6.53;;;;;;;20.95;76.60;94594.88;5022096;28;20046;-68
2022/08/20 02:03:15;;;;;;;13.80;7.70;;;;;;;20.94;76.79;94597.81;5015720;28;20111;-68
2022/08/20 02:05:42;;;;;;;11.45;7.35;;;;;;;20.97;77.06;94602.53;5017378;28;20338;-69
2022/08/20 02:08:09;;;;;;;8.98;5.78;;;;;;;20.92;77.17;94594.72;5002727;28;20133;-69
2022/08/20 02:10:36;;;;;;;11.80;6.47;;;;;;;20.85;77.58;94584.56;5019412;28;20623;-69
2022/08/20 02:13:04;;;;;;;13.02;7.00;;;;;;;20.97;77.77;94591.94;5020308;28;20045;-69
2022/08/20 02:15:31;;;;;;;11.43;7.63;;;;;;;20.85;77.64;94578.47;5017048;28;20099;-68
2022/08/20 02:18:10;;;;;;;11.55;6.55;;;;;;;20.97;77.73;94589.28;5017485;28;20103;-69
2022/08/20 02:20:38;;;;;;;10.43;6.80;;;;;;;20.85;77.67;94568.69;5018050;28;20045;-69
2022/08/20 02:23:06;;;;;;;11.48;6.88;;;;;;;20.89;78.14;94580.22;5018122;28;20104;-69
2022/08/20 02:25:37;;;;;;;13.35;7.43;;;;;;;20.84;77.98;94559.16;5016438;28;20551;-70
2022/08/20 02:28:11;;;;;;;10.43;7.20;;;;;;;20.92;78.02;94573.53;5021780;28;20056;-69
2022/08/20 02:30:41;;;;;;;10.60;6.95;;;;;;;20.88;78.15;94567.28;5003733;28;20044;-70
2022/08/20 02:33:11;;;;;;;13.13;7.05;;;;;;;20.89;78.36;94579.44;5010232;28;20049;-69
2022/08/20 02:35:44;;;;;;;13.20;7.43;;;;;;;20.91;78.57;94578.06;5018148;28;20417;-70
2022/08/20 02:38:12;;;;;;;10.20;7.28;;;;;;;20.95;78.28;94578.22;5015041;28;20534;-70
2022/08/20 02:40:39;;;;;;;10.00;6.93;;;;;;;20.95;78.92;94578.22;5019585;28;20041;-70
2022/08/20 02:43:06;;;;;;;14.93;7.32;;;;;;;20.88;78.32;94567.28;5013184;28;20568;-69
2022/08/20 02:45:36;;;;;;;9.70;6.40;;;;;;;20.93;77.89;94583.03;4999423;28;20045;-70
2022/08/20 02:48:04;;;;;;;11.63;7.53;;;;;;;20.92;78.47;94584.13;5015927;28;20046;-70
2022/08/20 02:50:31;;;;;;;8.35;6.47;;;;;;;20.90;78.54;94591.59;5015252;28;20060;-70
2022/08/20 02:52:58;;;;;;;11.18;7.70;;;;;;;20.89;78.86;94584.75;5014050;28;20054;-70
2022/08/20 02:55:25;;;;;;;8.98;6.82;;;;;;;20.83;78.61;94585.94;5017109;28;20044;-70
2022/08/20 02:57:56;;;;;;;12.10;6.88;;;;;;;20.86;78.82;94586.13;5015821;28;20055;-70
2022/08/20 03:00:26;;;;;;;9.65;7.20;;;;;;;20.86;79.20;94580.81;5010171;28;20042;-70
2022/08/20 03:02:53;;;;;;;9.57;6.88;;;;;;;20.85;78.80;94579.28;5016570;28;20139;-70
2022/08/20 03:05:20;;;;;;;8.55;6.72;;;;;;;20.86;79.53;94585.34;5019761;28;20037;-70
2022/08/20 03:07:55;;;;;;;11.73;7.45;;;;;;;20.86;80.17;94593.28;5013914;28;20053;-69
2022/08/20 03:10:29;;;;;;;12.82;7.18;;;;;;;20.82;80.19;94595.75;5017009;28;20033;-70
2022/08/20 03:12:58;;;;;;;9.07;7.28;;;;;;;20.71;80.24;94576.69;5011124;28;20585;-70
2022/08/20 03:15:25;;;;;;;14.57;7.47;;;;;;;20.77;80.11;94588.69;5013804;28;20963;-70
2022/08/20 03:17:52;;;;;;;10.23;6.65;;;;;;;20.79;80.02;94589.16;5021040;28;20107;-69
2022/08/20 03:20:20;;;;;;;9.57;6.72;;;;;;;20.75;80.28;94590.88;5014808;28;20044;-70
2022/08/20 03:22:50;;;;;;;16.92;7.40;;;;;;;20.66;79.92;94582.09;5017814;28;20126;-70
2022/08/20 03:25:18;;;;;;;13.13;7.70;;;;;;;20.75;79.81;94590.09;5014946;28;20460;-70
2022/08/20 03:27:46;;;;;;;8.82;7.55;;;;;;;20.73;79.49;94595.69;5016397;28;20095;-69
2022/08/20 03:30:21;;;;;;;10.05;7.60;;;;;;;20.59;79.74;94576.41;5015846;28;20691;-69
2022/08/20 03:32:47;;;;;;;11.02;7.03;;;;;;;20.66;79.99;94597.97;5008087;28;20442;-69
2022/08/20 03:35:16;;;;;;;10.52;7.68;;;;;;;20.61;81.24;94592.78;5015963;28;20049;-69
2022/08/20 03:37:44;;;;;;;13.65;8.43;;;;;;;20.62;81.23;94591.72;5016446;28;20058;-69
2022/08/20 03:40:24;;;;;;;9.57;7.13;;;;;;;20.54;81.53;94587.09;5006214;28;20041;-69
2022/08/20 03:42:51;;;;;;;13.40;7.70;;;;;;;20.54;81.36;94589.75;5016000;28;20044;-69
2022/08/20 03:45:19;;;;;;;9.05;6.88;;;;;;;20.59;81.30;94589.63;5016954;28;20033;-69
2022/08/20 03:47:47;;;;;;;10.95;7.70;;;;;;;20.55;81.11;94601.91;5017302;28;20578;-69
2022/08/20 03:50:16;;;;;;;11.35;7.80;;;;;;;20.49;81.53;94597.78;5017592;28;20053;-69
2022/08/20 03:52:53;;;;;;;10.25;7.03;;;;;;;20.51;81.68;94600.91;5022222;28;21611;-68
2022/08/20 03:55:21;;;;;;;14.25;7.90;;;;;;;20.52;82.00;94597.19;5020473;28;20123;-68
2022/08/20 03:57:52;;;;;;;13.05;7.25;;;;;;;20.51;81.65;94590.31;5025899;28;20138;-68
2022/08/20 04:00:28;;;;;;;11.60;6.85;;;;;;;20.54;82.17;94601.09;5023833;28;20049;-67
2022/08/20 04:02:55;;;;;;;9.88;7.72;;;;;;;20.54;82.18;94597.69;5018459;28;20057;-69
2022/08/20 04:05:28;;;;;;;13.25;7.00;;;;;;;20.59;82.55;94608.16;5010539;28;20053;-68
2022/08/20 04:07:57;;;;;;;11.80;7.75;;;;;;;20.59;82.12;94602.84;5015372;28;20052;-68
2022/08/20 04:10:30;;;;;;;13.02;7.53;;;;;;;20.60;82.99;94609.72;5018945;28;20124;-69
2022/08/20 04:12:57;;;;;;;16.90;8.00;;;;;;;20.62;82.61;94602.28;5020060;28;20461;-68
2022/08/20 04:15:25;;;;;;;11.60;8.98;;;;;;;20.66;82.29;94605.13;5021834;28;20103;-69
2022/08/20 04:17:52;;;;;;;11.98;7.78;;;;;;;20.66;82.63;94608.53;5021114;28;20053;-69
2022/08/20 04:20:24;;;;;;;13.57;7.60;;;;;;;20.70;82.73;94606.84;5017713;28;20152;-69
2022/08/20 04:22:54;;;;;;;14.50;9.25;;;;;;;20.67;82.63;94604.84;5020148;28;20045;-68
2022/08/20 04:25:27;;;;;;;16.50;7.97;;;;;;;20.73;82.73;94598.31;5016630;28;20073;-68
2022/08/20 04:28:01;;;;;;;14.65;8.90;;;;;;;20.79;82.05;94605.06;5020094;28;20076;-68
2022/08/20 04:30:28;;;;;;;21.55;9.15;;;;;;;20.91;81.61;94601.09;5001098;28;20052;-68
2022/08/20 04:32:55;;;;;;;19.77;9.13;;;;;;;20.98;81.74;94604.88;5019613;28;20549;-69
2022/08/20 04:35:25;;;;;;;16.77;9.00;;;;;;;20.94;81.35;94587.25;5018645;28;20441;-67
2022/08/20 04:38:05;;;;;;;12.88;9.00;;;;;;;21.16;81.58;94605.00;5018761;28;20105;-68
2022/08/20 04:43:22;;;;;;;12.65;8.23;;;;;;;21.37;81.46;94602.59;5012328;28;20049;-69
2022/08/20 04:45:50;;;;;;;10.38;8.10;;;;;;;21.45;80.99;94591.28;5018984;28;20132;-70
2022/08/20 04:48:19;;;;;;;10.35;7.55;;;;;;;21.52;80.68;94589.00;4998593;28;20042;-69
2022/08/20 04:50:46;;;;;;;14.20;7.78;;;;;;;21.68;79.76;94585.91;5013141;28;20049;-69
2022/08/20 04:53:16;;;;;;;10.23;6.75;;;;;;;21.68;79.42;94575.31;5015528;28;20041;-68
2022/08/20 04:55:49;;;;;;;11.02;7.18;;;;;;;21.89;78.12;94589.56;5001472;28;20054;-69
2022/08/20 04:58:32;;;;;;;16.90;7.28;;;;;;;22.10;78.07;94610.22;4998638;28;20045;-68
2022/08/20 05:01:05;;;;;;;17.92;7.82;;;;;;;22.24;78.24;94605.56;5014591;28;20064;-68
2022/08/20 05:03:33;;;;;;;16.00;7.13;;;;;;;22.29;77.17;94608.09;5003678;28;20061;-69
2022/08/20 05:06:03;;;;;;;11.77;7.68;;;;;;;22.42;76.36;94594.97;5005652;28;20056;-69
2022/08/20 05:08:30;;;;;;;13.50;7.25;;;;;;;22.60;76.67;94612.47;5012437;28;20127;-69
2022/08/20 05:10:58;;;;;;;22.23;8.57;;;;;;;22.74;75.88;94609.66;4999256;28;20508;-69
2022/08/20 05:13:45;;;;;;;12.55;7.50;;;;;;;22.87;74.36;94608.72;5017336;28;20076;-69
2022/08/20 05:16:11;;;;;;;14.75;7.50;;;;;;;23.01;73.90;94605.91;5000274;28;20057;-69
2022/08/20 05:18:38;;;;;;;12.90;7.13;;;;;;;23.17;73.04;94594.78;5011311;28;20061;-69
2022/08/20 05:21:05;;;;;;;9.65;7.00;;;;;;;23.30;72.16;94599.16;5019103;28;20286;-74
2022/08/20 05:23:35;;;;;;;9.05;7.03;;;;;;;23.41;71.26;94597.69;5024208;28;20041;-77
2022/08/20 05:26:07;;;;;;;13.35;7.45;;;;;;;23.53;70.72;94598.91;5013340;28;20052;-75
2022/08/20 05:28:37;;;;;;;16.48;7.35;;;;;;;23.70;70.00;94609.47;5031959;28;20040;-76
2022/08/20 05:31:24;;;;;;;8.20;7.30;;;;;;;23.84;69.80;94599.44;5015527;28;20041;-76
2022/08/20 05:34:00;;;;;;;10.13;6.68;;;;;;;23.88;69.37;94572.19;4946650;28;20049;-75
2022/08/20 05:36:28;;;;;;;16.38;7.47;;;;;;;24.12;68.60;94598.97;5016192;28;20056;-76
2022/08/20 05:38:55;;;;;;;11.25;7.18;;;;;;;24.29;68.16;94600.75;5037448;28;20482;-76
2022/08/20 05:41:22;;;;;;;10.30;6.70;;;;;;;24.35;66.85;94596.00;5040588;28;20065;-75
2022/08/20 05:44:02;;;;;;;10.43;7.97;;;;;;;24.43;66.39;94589.81;5022642;28;20069;-76
2022/08/20 05:46:30;;;;;;;9.07;6.72;;;;;;;24.61;65.91;94593.97;5039375;28;20389;-75
2022/08/20 05:49:00;;;;;;;14.68;7.72;;;;;;;24.65;65.96;94587.97;5014812;28;20537;-75
2022/08/20 05:51:28;;;;;;;12.50;7.75;;;;;;;24.83;65.63;94602.72;5005313;28;20044;-76
2022/08/20 05:53:56;;;;;;;11.05;7.13;;;;;;;24.87;65.07;94598.28;4996823;28;20052;-75
2022/08/20 05:56:25;;;;;;;10.65;7.07;;;;;;;25.07;64.19;94603.91;5019586;28;20041;-76
2022/08/20 05:58:53;;;;;;;10.60;6.57;;;;;;;25.20;63.85;94597.50;5024068;28;20033;-76
2022/08/20 06:01:20;;;;;;;10.18;7.43;;;;;;;25.23;63.66;94586.19;5019991;28;20053;-75
2022/08/20 06:06:33;;;;;;;10.32;7.55;;;;;;;25.31;63.00;94572.00;5027007;28;20037;-72
2022/08/20 06:09:15;;;;;;;12.13;7.18;;;;;;;25.52;62.90;94592.47;5015345;28;20513;-74
2022/08/20 06:11:54;;;;;;;11.07;7.50;;;;;;;25.58;61.61;94607.13;5009030;28;20061;-69
2022/08/20 06:14:25;;;;;;;12.05;7.30;;;;;;;25.71;61.98;94597.25;5019105;28;20045;-70
2022/08/20 06:16:52;;;;;;;10.88;7.68;;;;;;;25.88;61.79;94604.28;5018072;28;20037;-70
2022/08/20 06:19:25;;;;;;;15.32;7.25;;;;;;;25.80;61.01;94573.16;5012537;28;20543;-70
2022/08/20 06:21:55;;;;;;;15.23;7.90;;;;;;;26.19;59.80;94605.63;5014722;28;20045;-71
2022/08/20 06:24:23;;;;;;;9.88;7.65;;;;;;;26.23;58.89;94593.16;5018784;28;20128;-71
2022/08/20 06:26:59;;;;;;;10.52;6.95;;;;;;;26.37;59.24;94604.25;5001874;28;20485;-72
2022/08/20 06:29:27;;;;;;;11.13;6.63;;;;;;;26.49;59.24;94601.56;5013101;28;20052;-72
2022/08/20 06:31:55;;;;;;;9.18;6.95;;;;;;;26.64;60.15;94602.75;5001090;28;20057;-73
2022/08/20 06:34:27;;;;;;;12.40;7.70;;;;;;;26.67;57.24;94604.75;5015770;28;20060;-70
2022/08/20 06:36:58;;;;;;;10.32;6.88;;;;;;;26.72;57.55;94609.06;5010904;28;20761;-71
2022/08/20 06:39:27;;;;;;;11.63;7.60;;;;;;;26.81;57.77;94601.72;4999322;28;20049;-70
2022/08/20 06:41:57;;;;;;;17.73;7.47;;;;;;;26.96;57.02;94599.44;5015002;28;20049;-71
2022/08/20 06:44:24;;;;;;;9.30;6.55;;;;;;;27.18;56.65;94604.22;4999020;28;20813;-71
2022/08/20 06:46:51;;;;;;;10.50;7.78;;;;;;;27.32;56.33;94608.44;5016207;28;20053;-69
2022/08/20 06:49:18;;;;;;;11.98;7.00;;;;;;;27.46;54.92;94608.78;5007419;28;20049;-71
2022/08/20 06:51:45;;;;;;;6.85;6.10;;;;;;;27.63;54.83;94613.78;5013241;28;20608;-66
2022/08/20 06:54:17;;;;;;;13.75;7.05;;;;;;;27.76;54.86;94600.31;5017381;28;20077;-66
2022/08/20 06:56:44;;;;;;;9.10;7.32;;;;;;;27.82;51.86;94596.25;5014836;28;20596;-70
2022/08/20 06:59:11;;;;;;;7.70;6.38;;;;;;;27.94;52.38;94606.88;4999452;28;20045;-68
2022/08/20 07:01:38;;;;;;;8.00;6.43;;;;;;;28.14;51.33;94598.91;4990221;28;20498;-66
2022/08/20 07:04:07;;;;;;;13.02;7.38;;;;;;;28.27;53.62;94595.03;5012107;28;20049;-72
2022/08/20 07:06:34;;;;;;;10.48;7.13;;;;;;;28.33;52.79;94580.22;4998793;28;20141;-71
2022/08/20 07:09:00;;;;;;;10.98;6.72;;;;;;;28.50;50.38;94602.38;5016226;28;20450;-67
2022/08/20 07:11:27;;;;;;;12.43;6.50;;;;;;;28.54;49.21;94585.28;5004883;28;20053;-68
2022/08/20 07:13:57;;;;;;;10.90;6.40;;;;;;;28.61;50.07;94573.91;5013488;28;20045;-74
2022/08/20 07:16:25;;;;;;;10.40;6.50;;;;;;;28.71;49.23;94589.44;5016386;28;20152;-71
2022/08/20 07:18:52;;;;;;;16.77;7.13;;;;;;;28.82;49.84;94594.25;5013268;28;20948;-71
2022/08/20 07:21:19;;;;;;;13.52;7.03;;;;;;;28.95;49.53;94592.94;5017253;28;20037;-70
2022/08/20 07:23:47;;;;;;;13.18;6.68;;;;;;;28.96;48.86;94583.78;5014071;28;20046;-67
2022/08/20 07:26:15;;;;;;;15.18;6.60;;;;;;;29.00;49.25;94573.91;5019435;28;20042;-68
2022/08/20 07:28:41;;;;;;;9.75;7.05;;;;;;;29.20;48.72;94577.34;5016985;28;20049;-68
2022/08/20 07:33:57;;;;;;;11.38;6.57;;;;;;;29.28;47.80;94570.19;5014729;28;20052;-67
2022/08/20 07:36:26;;;;;;;8.75;6.47;;;;;;;29.37;47.41;94576.13;5001765;28;20657;-67
2022/08/20 07:38:53;;;;;;;10.52;6.30;;;;;;;29.52;47.36;94577.91;5018388;28;20045;-67
2022/08/20 07:41:22;;;;;;;9.80;6.93;;;;;;;29.52;47.48;94577.13;5000686;28;20163;-68
2022/08/20 07:43:50;;;;;;;8.98;6.50;;;;;;;29.69;48.03;94581.22;5016608;28;20049;-68
2022/08/20 07:46:20;;;;;;;10.77;6.43;;;;;;;29.64;47.18;94568.09;5000534;28;20037;-68
2022/08/20 07:48:48;;;;;;;11.35;7.10;;;;;;;29.75;46.09;94569.09;5014311;28;20096;-69
2022/08/20 07:51:21;;;;;;;10.88;6.55;;;;;;;29.89;46.61;94566.63;5019138;28;20069;-69
2022/08/20 07:53:50;;;;;;;18.27;6.95;;;;;;;29.99;46.40;94583.25;5016689;28;20052;-70
2022/08/20 07:56:22;;;;;;;21.10;6.65;;;;;;;29.99;46.63;94567.16;5009649;28;20037;-69
2022/08/20 07:58:54;;;;;;;10.32;6.43;;;;;;;30.25;45.86;94579.78;5012333;28;20045;-70
2022/08/20 08:01:27;;;;;;;8.02;6.35;;;;;;;30.49;45.34;94578.59;5010997;28;20049;-70
2022/08/20 08:03:56;;;;;;;9.80;6.40;;;;;;;30.67;45.16;94579.59;4993760;28;20077;-70
2022/08/20 08:06:24;;;;;;;11.05;6.40;;;;;;;30.64;44.66;94568.78;5011774;28;20620;-70
2022/08/20 08:09:12;;;;;;;9.40;6.55;;;;;;;30.82;45.00;94574.38;5012948;28;20622;-69
2022/08/20 08:11:49;;;;;;;13.20;7.20;;;;;;;31.06;43.60;94568.53;5012440;28;20041;-69
2022/08/20 08:14:20;;;;;;;16.15;9.45;;;;;;;31.27;42.50;94569.88;5005127;28;20305;-70
2022/08/20 08:16:46;;;;;;;9.10;7.28;;;;;;;31.17;41.95;94547.13;5017790;28;21202;-69
2022/08/20 08:19:16;;;;;;;7.65;5.68;;;;;;;31.52;40.33;94572.06;5012883;28;20502;-70
2022/08/20 08:21:43;;;;;;;10.15;6.45;;;;;;;31.63;41.33;94567.53;5014716;28;20045;-70
2022/08/20 08:24:11;;;;;;;41.25;19.35;;;;;;;31.77;40.17;94556.88;4999093;28;20060;-69
2022/08/20 08:26:48;;;;;;;10.85;6.38;;;;;;;31.91;39.70;94560.78;5016337;28;20604;-71
2022/08/20 08:29:16;;;;;;;9.52;6.03;;;;;;;32.01;39.67;94560.09;5014751;28;20038;-69
2022/08/20 08:31:43;;;;;;;11.25;6.38;;;;;;;32.06;39.65;94557.09;5020189;28;20045;-69
2022/08/20 08:34:10;;;;;;;7.70;6.40;;;;;;;32.09;38.49;94552.88;5015880;28;20512;-69
2022/08/20 08:36:38;;;;;;;12.27;6.40;;;;;;;32.31;38.93;94559.16;5001657;28;20045;-70
2022/08/20 08:39:05;;;;;;;9.85;6.18;;;;;;;32.21;38.71;94525.63;4999248;28;20054;-69
2022/08/20 08:41:48;;;;;;;8.15;7.00;;;;;;;32.57;38.91;94553.50;5021744;28;20049;-69
2022/08/20 08:44:34;;;;;;;11.65;7.13;;;;;;;32.65;37.98;94557.03;5014079;28;20533;-69
2022/08/20 08:47:12;;;;;;;12.15;6.15;;;;;;;32.72;37.33;94559.75;5004516;28;20259;-69
2022/08/20 08:49:39;;;;;;;16.20;7.53;;;;;;;32.67;37.64;94557.41;5001726;28;20518;-68
2022/08/20 08:52:13;;;;;;;16.48;5.53;;;;;;;32.70;38.00;94545.88;5014624;28;20056;-68
2022/08/20 08:54:47;;;;;;;19.30;12.93;;;;;;;32.79;36.88;94548.22;5018319;28;20152;-69
2022/08/20 08:57:15;;;;;;;15.90;7.13;;;;;;;32.88;38.17;94537.06;5010099;28;20040;-69
2022/08/20 08:59:44;;;;;;;7.82;5.53;;;;;;;33.06;37.24;94545.19;5001794;28;20057;-68
2022/08/20 09:02:30;;;;;;;15.10;7.10;;;;;;;33.25;37.17;94536.00;4927616;28;20051;-68
2022/08/20 09:05:01;;;;;;;12.07;6.65;;;;;;;33.37;36.53;94532.16;4994681;28;20054;-69
2022/08/20 09:07:31;;;;;;;9.40;5.82;;;;;;;33.40;36.29;94526.75;5014469;28;20038;-68
2022/08/20 09:10:01;;;;;;;8.40;5.70;;;;;;;33.60;34.75;94524.47;4994482;28;20128;-68
2022/08/20 09:12:27;;;;;;;9.18;6.10;;;;;;;33.63;36.20;94531.00;5020231;28;20044;-69
2022/08/20 09:14:54;;;;;;;14.88;6.45;;;;;;;33.81;35.19;94528.31;4998101;28;20860;-69
2022/08/20 09:17:22;;;;;;;7.00;6.30;;;;;;;33.90;35.87;94526.00;5018204;28;20045;-69
2022/08/20 09:19:51;;;;;;;14.63;5.75;;;;;;;34.00;34.90;94535.25;5020814;28;20161;-68
2022/08/20 09:22:20;;;;;;;9.10;5.53;;;;;;;34.01;34.65;94524.03;5003898;28;20052;-68
2022/08/20 09:24:48;;;;;;;9.48;6.07;;;;;;;34.21;34.88;94534.44;5021959;28;20052;-69
2022/08/20 09:27:15;;;;;;;6.60;5.85;;;;;;;34.12;34.65;94515.13;5021824;28;20045;-69
2022/08/20 09:29:42;;;;;;;10.57;6.13;;;;;;;34.27;34.71;94538.31;5003970;28;20770;-69
2022/08/20 09:32:15;;;;;;;7.57;6.53;;;;;;;34.36;33.64;94535.94;5017772;28;20053;-69
2022/08/20 09:34:45;;;;;;;9.02;6.13;;;;;;;34.03;33.54;94534.44;5021519;28;20124;-69
2022/08/20 09:37:14;;;;;;;10.20;6.07;;;;;;;34.15;34.62;94530.56;5021252;28;21904;-68
2022/08/20 09:39:41;;;;;;;10.57;6.00;;;;;;;34.34;35.17;94532.88;5008026;28;20523;-68
2022/08/20 09:42:13;;;;;;;12.02;6.55;;;;;;;34.49;33.81;94532.81;5020449;28;20510;-69
2022/08/20 09:44:40;;;;;;;9.07;6.68;;;;;;;34.61;33.76;94518.84;4994156;28;20041;-69
2022/08/20 09:47:07;;;;;;;20.02;6.70;;;;;;;34.78;33.33;94523.44;5021562;28;20045;-68
2022/08/20 09:49:36;;;;;;;11.45;5.85;;;;;;;34.95;33.11;94515.59;5019918;28;20597;-69
2022/08/20 09:52:06;;;;;;;7.78;5.63;;;;;;;35.18;33.58;94523.97;4995740;28;20087;-69
2022/08/20 09:54:34;;;;;;;12.05;6.10;;;;;;;35.38;31.69;94520.75;5016564;28;20108;-68
2022/08/20 09:57:04;;;;;;;9.27;6.43;;;;;;;35.30;31.25;94519.28;5012095;28;20044;-69
2022/08/20 09:59:33;;;;;;;9.05;6.68;;;;;;;35.37;31.80;94517.28;5016877;28;20450;-69
2022/08/20 10:02:00;;;;;;;6.93;5.70;;;;;;;35.64;31.73;94524.03;5013164;28;20050;-69
2022/08/20 10:04:26;;;;;;;9.73;5.93;;;;;;;35.81;30.81;94520.41;5016457;28;20099;-70
2022/08/20 10:06:54;;;;;;;10.98;6.13;;;;;;;35.96;30.54;94519.13;4987414;28;20577;-69
2022/08/20 10:09:20;;;;;;;7.43;5.93;;;;;;;36.16;30.25;94518.53;5015099;28;20041;-69
2022/08/20 10:11:47;;;;;;;9.25;6.00;;;;;;;36.11;30.60;94521.69;5017820;28;20067;-69
2022/08/20 10:14:14;;;;;;;8.40;6.15;;;;;;;36.08;30.75;94511.66;5016763;28;20048;-68
2022/08/20 10:16:41;;;;;;;10.48;6.03;;;;;;;36.08;31.13;94517.06;5015487;28;20958;-69
2022/08/20 10:19:08;;;;;;;11.38;6.45;;;;;;;36.13;30.19;94513.91;5003889;28;20489;-68
2022/08/20 10:21:35;;;;;;;16.00;6.05;;;;;;;35.96;30.62;94516.41;5018022;28;20072;-69
2022/08/20 10:24:05;;;;;;;10.35;6.07;;;;;;;36.24;30.10;94509.19;5017272;28;20045;-69
2022/08/20 10:26:32;;;;;;;8.73;5.85;;;;;;;36.51;28.89;94516.63;5015416;28;20054;-69
2022/08/20 10:28:59;;;;;;;6.53;5.32;;;;;;;36.78;29.64;94507.78;5010399;28;20049;-69
2022/08/20 10:31:25;;;;;;;7.13;5.93;;;;;;;36.99;28.30;94512.91;5016654;28;20445;-69
2022/08/20 10:33:52;;;;;;;10.32;5.50;;;;;;;37.05;28.36;94505.84;5018214;28;20033;-68
2022/08/20 10:36:19;;;;;;;9.50;5.93;;;;;;;37.22;28.15;94506.00;5006807;28;20045;-69
2022/08/20 10:38:47;;;;;;;8.88;6.07;;;;;;;37.35;28.52;94506.97;5014140;28;20052;-68
2022/08/20 10:41:14;;;;;;;6.93;5.90;;;;;;;37.46;28.18;94504.09;5019737;28;20075;-69
2022/08/20 10:43:41;;;;;;;8.20;5.80;;;;;;;37.46;27.58;94502.13;5018876;28;20056;-69
2022/08/20 10:46:08;;;;;;;9.05;5.85;;;;;;;37.58;26.80;94492.63;5018550;28;20049;-69
2022/08/20 10:48:35;;;;;;;8.65;6.43;;;;;;;37.46;27.53;94491.28;5013391;28;20412;-69
2022/08/20 10:51:05;;;;;;;8.50;5.78;;;;;;;37.74;26.91;94505.56;5020162;28;20058;-69
2022/08/20 10:53:35;;;;;;;;;;;;;;;37.73;26.62;94504.06;5016041;28;20056;-69
2022/08/20 10:56:02;;;;;;;10.55;5.57;;;;;;;37.64;27.31;94495.69;5019935;28;19931;-70
2022/08/20 10:58:30;;;;;;;7.82;5.47;;;;;;;37.97;26.42;94498.59;5017722;28;20426;-70
2022/08/20 11:01:06;;;;;;;7.65;5.75;;;;;;;38.07;25.63;94500.34;5018371;28;20131;-69
2022/08/20 11:03:33;;;;;;;6.55;5.45;;;;;;;38.44;25.26;94501.19;5010014;28;20044;-69
2022/08/20 11:06:01;;;;;;;6.75;5.22;;;;;;;38.60;24.83;94495.84;4999159;28;20059;-67
2022/08/20 11:08:28;;;;;;;6.75;5.35;;;;;;;38.72;24.65;94499.13;5017767;28;20434;-69
2022/08/20 11:11:00;;;;;;;5.07;4.57;;;;;;;38.88;24.25;94490.97;5016299;28;20057;-70
2022/08/20 11:13:26;;;;;;;11.07;6.07;;;;;;;39.23;23.89;94502.25;5002197;28;20465;-70
2022/08/20 11:15:53;;;;;;;7.40;5.50;;;;;;;39.42;23.98;94500.66;5018045;28;20682;-68
2022/08/20 11:18:20;;;;;;;7.63;5.20;;;;;;;39.63;23.19;94493.94;5013939;28;20049;-69
2022/08/20 11:20:47;;;;;;;7.78;5.85;;;;;;;39.87;23.01;94491.78;5014487;28;20060;-68
2022/08/20 11:23:14;;;;;;;6.47;4.88;;;;;;;39.66;21.99;94484.91;5014798;28;20038;-69
2022/08/20 11:25:41;;;;;;;6.78;5.82;;;;;;;39.38;24.17;94484.41;5013305;28;20101;-68
2022/08/20 11:28:08;;;;;;;11.05;5.85;;;;;;;38.94;24.63;94472.19;5001257;28;20041;-69
2022/08/20 11:30:36;;;;;;;10.48;6.35;;;;;;;39.04;25.36;94475.88;5014660;28;20398;-68
2022/08/20 11:33:03;;;;;;;9.00;5.68;;;;;;;38.78;24.93;94465.53;5012862;28;20051;-68
2022/08/20 11:35:32;;;;;;;6.15;5.55;;;;;;;38.57;24.94;94471.44;5015645;28;20533;-68
2022/08/20 11:38:17;;;;;;;5.78;5.20;;;;;;;38.62;25.37;94447.19;5012881;28;20141;-68
2022/08/20 11:40:45;;;;;;;6.90;5.50;;;;;;;38.83;23.78;94445.22;5017258;28;20045;-69
2022/08/20 11:43:12;;;;;;;6.85;5.60;;;;;;;39.41;24.38;94454.78;5015857;28;20397;-69
2022/08/20 11:45:47;;;;;;;8.00;5.43;;;;;;;39.37;23.55;94455.63;5017365;28;20049;-68
2022/08/20 11:48:14;;;;;;;9.30;5.90;;;;;;;39.36;24.24;94445.94;5017962;28;20128;-68
2022/08/20 11:50:41;;;;;;;7.10;5.32;;;;;;;39.15;24.09;94433.59;5019463;28;20038;-69